sensor_id;sensor_type;location;lat;lon;timestamp;P1;durP1;ratioP1;P2;durP2;ratioP2
13897;SDS011;7019;50.766;4.474;2024-02-21T00:00:08;20.73;;;11.33;;
13897;SDS011;7019;50.766;4.474;2024-02-21T00:02:36;24.83;;;11.47;;
13897;SDS011;7019;50.766;4.474;2024-02-21T00:05:04;20.27;;;10.33;;
13897;SDS011;7019;50.766;4.474;2024-02-21T00:07:33;30.53;;;11.63;;
13897;SDS011;7019;50.766;4.474;2024-02-21T00:10:00;20.87;;;10.20;;
13897;SDS011;7019;50.766;4.474;2024-02-21T00:12:27;21.87;;;11.83;;
13897;SDS011;7019;50.766;4.474;2024-02-21T00:14:54;27.03;;;11.13;;
13897;SDS011;7019;50.766;4.474;2024-02-21T00:17:21;25.30;;;11.93;;
13897;SDS011;7019;50.766;4.474;2024-02-21T00:19:48;23.40;;;11.53;;
13897;SDS011;7019;50.766;4.474;2024-02-21T00:22:15;24.77;;;10.50;;
13897;SDS011;7019;50.766;4.474;2024-02-21T00:24:43;20.20;;;10.97;;
13897;SDS011;7019;50.766;4.474;2024-02-21T00:27:10;24.57;;;11.03;;
13897;SDS011;7019;50.766;4.474;2024-02-21T00:29:37;27.10;;;10.50;;
13897;SDS011;7019;50.766;4.474;2024-02-21T00:32:04;20.77;;;10.10;;
13897;SDS011;7019;50.766;4.474;2024-02-21T00:34:32;24.80;;;10.43;;
13897;SDS011;7019;50.766;4.474;2024-02-21T00:37:00;24.20;;;10.07;;
13897;SDS011;7019;50.766;4.474;2024-02-21T00:39:27;22.03;;;10.10;;
13897;SDS011;7019;50.766;4.474;2024-02-21T00:41:55;26.33;;;10.60;;
13897;SDS011;7019;50.766;4.474;2024-02-21T00:44:22;20.43;;;9.83;;
13897;SDS011;7019;50.766;4.474;2024-02-21T00:46:50;23.40;;;10.03;;
13897;SDS011;7019;50.766;4.474;2024-02-21T00:49:17;22.90;;;10.17;;
13897;SDS011;7019;50.766;4.474;2024-02-21T00:51:44;22.50;;;9.90;;
13897;SDS011;7019;50.766;4.474;2024-02-21T00:54:11;25.10;;;10.67;;
13897;SDS011;7019;50.766;4.474;2024-02-21T00:56:38;24.50;;;11.23;;
13897;SDS011;7019;50.766;4.474;2024-02-21T00:59:07;19.00;;;9.83;;
13897;SDS011;7019;50.766;4.474;2024-02-21T01:01:34;17.57;;;9.50;;
13897;SDS011;7019;50.766;4.474;2024-02-21T01:04:01;20.97;;;10.90;;
13897;SDS011;7019;50.766;4.474;2024-02-21T01:06:28;23.63;;;10.10;;
13897;SDS011;7019;50.766;4.474;2024-02-21T01:08:55;26.97;;;10.30;;
13897;SDS011;7019;50.766;4.474;2024-02-21T01:11:22;26.30;;;9.77;;
13897;SDS011;7019;50.766;4.474;2024-02-21T01:13:49;22.60;;;9.77;;
13897;SDS011;7019;50.766;4.474;2024-02-21T01:16:17;19.57;;;9.57;;
13897;SDS011;7019;50.766;4.474;2024-02-21T01:18:44;17.67;;;8.57;;
13897;SDS011;7019;50.766;4.474;2024-02-21T01:21:11;22.43;;;9.20;;
13897;SDS011;7019;50.766;4.474;2024-02-21T01:23:38;22.63;;;9.30;;
13897;SDS011;7019;50.766;4.474;2024-02-21T01:26:06;20.17;;;8.43;;
13897;SDS011;7019;50.766;4.474;2024-02-21T01:28:33;20.50;;;9.17;;
13897;SDS011;7019;50.766;4.474;2024-02-21T01:31:00;19.87;;;9.13;;
13897;SDS011;7019;50.766;4.474;2024-02-21T01:33:29;20.40;;;8.93;;
13897;SDS011;7019;50.766;4.474;2024-02-21T01:36:00;14.63;;;8.33;;
13897;SDS011;7019;50.766;4.474;2024-02-21T01:38:27;20.60;;;8.80;;
13897;SDS011;7019;50.766;4.474;2024-02-21T01:40:54;12.33;;;8.23;;
13897;SDS011;7019;50.766;4.474;2024-02-21T01:43:22;23.60;;;8.80;;
13897;SDS011;7019;50.766;4.474;2024-02-21T01:45:49;13.27;;;7.77;;
13897;SDS011;7019;50.766;4.474;2024-02-21T01:48:18;20.20;;;8.57;;
13897;SDS011;7019;50.766;4.474;2024-02-21T01:50:47;17.70;;;8.97;;
13897;SDS011;7019;50.766;4.474;2024-02-21T01:53:16;21.00;;;8.00;;
13897;SDS011;7019;50.766;4.474;2024-02-21T01:55:45;20.63;;;8.53;;
13897;SDS011;7019;50.766;4.474;2024-02-21T01:58:12;17.17;;;7.73;;
13897;SDS011;7019;50.766;4.474;2024-02-21T02:00:40;21.27;;;8.07;;
13897;SDS011;7019;50.766;4.474;2024-02-21T02:03:09;19.03;;;8.10;;
13897;SDS011;7019;50.766;4.474;2024-02-21T02:05:42;16.47;;;7.80;;
13897;SDS011;7019;50.766;4.474;2024-02-21T02:08:11;21.47;;;8.03;;
13897;SDS011;7019;50.766;4.474;2024-02-21T02:10:38;15.83;;;7.40;;
13897;SDS011;7019;50.766;4.474;2024-02-21T02:13:06;15.17;;;8.50;;
13897;SDS011;7019;50.766;4.474;2024-02-21T02:15:39;13.93;;;7.43;;
13897;SDS011;7019;50.766;4.474;2024-02-21T02:18:07;18.67;;;8.17;;
13897;SDS011;7019;50.766;4.474;2024-02-21T02:20:34;17.80;;;8.07;;
13897;SDS011;7019;50.766;4.474;2024-02-21T02:23:02;21.03;;;8.20;;
13897;SDS011;7019;50.766;4.474;2024-02-21T02:25:36;18.30;;;7.20;;
13897;SDS011;7019;50.766;4.474;2024-02-21T02:28:03;19.27;;;8.00;;
13897;SDS011;7019;50.766;4.474;2024-02-21T02:30:32;14.67;;;7.00;;
13897;SDS011;7019;50.766;4.474;2024-02-21T02:33:01;16.80;;;6.97;;
13897;SDS011;7019;50.766;4.474;2024-02-21T02:35:28;13.07;;;7.47;;
13897;SDS011;7019;50.766;4.474;2024-02-21T02:37:55;16.63;;;7.87;;
13897;SDS011;7019;50.766;4.474;2024-02-21T02:40:22;17.63;;;7.97;;
13897;SDS011;7019;50.766;4.474;2024-02-21T02:42:51;14.57;;;7.20;;
13897;SDS011;7019;50.766;4.474;2024-02-21T02:45:20;18.00;;;7.77;;
13897;SDS011;7019;50.766;4.474;2024-02-21T02:47:51;20.57;;;7.47;;
13897;SDS011;7019;50.766;4.474;2024-02-21T02:50:19;12.87;;;7.27;;
13897;SDS011;7019;50.766;4.474;2024-02-21T02:52:46;16.87;;;7.77;;
13897;SDS011;7019;50.766;4.474;2024-02-21T02:55:13;21.17;;;8.33;;
13897;SDS011;7019;50.766;4.474;2024-02-21T02:57:41;15.70;;;7.43;;
13897;SDS011;7019;50.766;4.474;2024-02-21T03:00:10;16.33;;;8.60;;
13897;SDS011;7019;50.766;4.474;2024-02-21T03:02:39;20.33;;;8.60;;
13897;SDS011;7019;50.766;4.474;2024-02-21T03:05:11;18.67;;;8.23;;
13897;SDS011;7019;50.766;4.474;2024-02-21T03:07:39;14.87;;;7.57;;
13897;SDS011;7019;50.766;4.474;2024-02-21T03:10:07;17.93;;;7.20;;
13897;SDS011;7019;50.766;4.474;2024-02-21T03:12:35;15.70;;;7.43;;
13897;SDS011;7019;50.766;4.474;2024-02-21T03:15:02;15.07;;;7.50;;
13897;SDS011;7019;50.766;4.474;2024-02-21T03:17:31;15.80;;;8.03;;
13897;SDS011;7019;50.766;4.474;2024-02-21T03:19:59;15.47;;;8.33;;
13897;SDS011;7019;50.766;4.474;2024-02-21T03:22:29;18.83;;;7.67;;
13897;SDS011;7019;50.766;4.474;2024-02-21T03:24:57;17.40;;;8.63;;
13897;SDS011;7019;50.766;4.474;2024-02-21T03:27:24;23.23;;;7.83;;
13897;SDS011;7019;50.766;4.474;2024-02-21T03:29:51;18.17;;;7.73;;
13897;SDS011;7019;50.766;4.474;2024-02-21T03:32:18;19.10;;;7.60;;
13897;SDS011;7019;50.766;4.474;2024-02-21T03:34:46;17.17;;;8.43;;
13897;SDS011;7019;50.766;4.474;2024-02-21T03:37:13;15.97;;;7.10;;
13897;SDS011;7019;50.766;4.474;2024-02-21T03:39:40;16.10;;;7.87;;
13897;SDS011;7019;50.766;4.474;2024-02-21T03:42:08;13.20;;;7.63;;
13897;SDS011;7019;50.766;4.474;2024-02-21T03:44:35;15.40;;;7.43;;
13897;SDS011;7019;50.766;4.474;2024-02-21T03:47:03;15.07;;;8.20;;
13897;SDS011;7019;50.766;4.474;2024-02-21T03:49:30;18.80;;;8.83;;
13897;SDS011;7019;50.766;4.474;2024-02-21T03:51:58;20.10;;;9.40;;
13897;SDS011;7019;50.766;4.474;2024-02-21T03:54:25;16.90;;;7.63;;
13897;SDS011;7019;50.766;4.474;2024-02-21T03:56:52;19.37;;;8.90;;
13897;SDS011;7019;50.766;4.474;2024-02-21T03:59:20;15.30;;;7.83;;
13897;SDS011;7019;50.766;4.474;2024-02-21T04:01:51;18.70;;;8.43;;
13897;SDS011;7019;50.766;4.474;2024-02-21T04:04:18;15.90;;;8.27;;
13897;SDS011;7019;50.766;4.474;2024-02-21T04:06:46;12.80;;;7.80;;
13897;SDS011;7019;50.766;4.474;2024-02-21T04:09:15;13.93;;;7.87;;
13897;SDS011;7019;50.766;4.474;2024-02-21T04:11:42;16.37;;;8.23;;
13897;SDS011;7019;50.766;4.474;2024-02-21T04:14:09;15.77;;;8.57;;
13897;SDS011;7019;50.766;4.474;2024-02-21T04:16:37;18.10;;;8.20;;
13897;SDS011;7019;50.766;4.474;2024-02-21T04:19:05;20.00;;;8.10;;
13897;SDS011;7019;50.766;4.474;2024-02-21T04:21:32;18.53;;;7.77;;
13897;SDS011;7019;50.766;4.474;2024-02-21T04:23:59;16.37;;;7.70;;
13897;SDS011;7019;50.766;4.474;2024-02-21T04:26:28;18.63;;;8.83;;
13897;SDS011;7019;50.766;4.474;2024-02-21T04:28:55;15.77;;;8.40;;
13897;SDS011;7019;50.766;4.474;2024-02-21T04:31:22;13.57;;;7.90;;
13897;SDS011;7019;50.766;4.474;2024-02-21T04:33:49;12.40;;;8.00;;
13897;SDS011;7019;50.766;4.474;2024-02-21T04:36:16;11.83;;;7.50;;
13897;SDS011;7019;50.766;4.474;2024-02-21T04:38:43;17.60;;;8.27;;
13897;SDS011;7019;50.766;4.474;2024-02-21T04:41:11;15.93;;;7.43;;
13897;SDS011;7019;50.766;4.474;2024-02-21T04:43:39;13.77;;;7.40;;
13897;SDS011;7019;50.766;4.474;2024-02-21T04:46:07;14.20;;;6.70;;
13897;SDS011;7019;50.766;4.474;2024-02-21T04:48:35;15.43;;;7.20;;
13897;SDS011;7019;50.766;4.474;2024-02-21T04:51:02;16.40;;;7.80;;
13897;SDS011;7019;50.766;4.474;2024-02-21T04:53:29;12.77;;;6.57;;
13897;SDS011;7019;50.766;4.474;2024-02-21T04:55:56;12.90;;;7.10;;
13897;SDS011;7019;50.766;4.474;2024-02-21T04:58:23;13.33;;;7.67;;
13897;SDS011;7019;50.766;4.474;2024-02-21T05:00:52;12.53;;;6.87;;
13897;SDS011;7019;50.766;4.474;2024-02-21T05:03:20;10.30;;;6.60;;
13897;SDS011;7019;50.766;4.474;2024-02-21T05:05:47;11.37;;;6.47;;
13897;SDS011;7019;50.766;4.474;2024-02-21T05:08:15;12.13;;;7.17;;
13897;SDS011;7019;50.766;4.474;2024-02-21T05:10:42;17.87;;;7.97;;
13897;SDS011;7019;50.766;4.474;2024-02-21T05:13:09;15.53;;;7.57;;
13897;SDS011;7019;50.766;4.474;2024-02-21T05:15:36;14.60;;;6.80;;
13897;SDS011;7019;50.766;4.474;2024-02-21T05:18:05;14.30;;;7.40;;
13897;SDS011;7019;50.766;4.474;2024-02-21T05:20:32;15.97;;;6.73;;
13897;SDS011;7019;50.766;4.474;2024-02-21T05:22:59;8.67;;;6.20;;
13897;SDS011;7019;50.766;4.474;2024-02-21T05:25:26;13.90;;;6.93;;
13897;SDS011;7019;50.766;4.474;2024-02-21T05:27:53;9.90;;;5.33;;
13897;SDS011;7019;50.766;4.474;2024-02-21T05:30:21;13.07;;;6.23;;
13897;SDS011;7019;50.766;4.474;2024-02-21T05:32:48;10.67;;;6.40;;
13897;SDS011;7019;50.766;4.474;2024-02-21T05:35:16;11.77;;;6.00;;
13897;SDS011;7019;50.766;4.474;2024-02-21T05:37:43;12.67;;;6.43;;
13897;SDS011;7019;50.766;4.474;2024-02-21T05:40:12;13.17;;;6.20;;
13897;SDS011;7019;50.766;4.474;2024-02-21T05:42:39;11.43;;;5.63;;
13897;SDS011;7019;50.766;4.474;2024-02-21T05:45:06;11.53;;;6.37;;
13897;SDS011;7019;50.766;4.474;2024-02-21T05:47:34;10.70;;;5.50;;
13897;SDS011;7019;50.766;4.474;2024-02-21T05:50:01;11.13;;;4.67;;
13897;SDS011;7019;50.766;4.474;2024-02-21T05:52:30;10.10;;;5.60;;
13897;SDS011;7019;50.766;4.474;2024-02-21T05:54:57;10.70;;;4.97;;
13897;SDS011;7019;50.766;4.474;2024-02-21T05:57:24;10.63;;;5.37;;
13897;SDS011;7019;50.766;4.474;2024-02-21T05:59:51;10.13;;;5.13;;
13897;SDS011;7019;50.766;4.474;2024-02-21T06:02:18;8.60;;;4.67;;
13897;SDS011;7019;50.766;4.474;2024-02-21T06:04:45;11.43;;;5.27;;
13897;SDS011;7019;50.766;4.474;2024-02-21T06:07:12;10.30;;;4.97;;
13897;SDS011;7019;50.766;4.474;2024-02-21T06:09:41;8.37;;;5.10;;
13897;SDS011;7019;50.766;4.474;2024-02-21T06:12:08;8.33;;;4.63;;
13897;SDS011;7019;50.766;4.474;2024-02-21T06:14:35;9.27;;;4.37;;
13897;SDS011;7019;50.766;4.474;2024-02-21T06:17:02;8.33;;;5.17;;
13897;SDS011;7019;50.766;4.474;2024-02-21T06:19:29;9.23;;;4.80;;
13897;SDS011;7019;50.766;4.474;2024-02-21T06:21:56;9.33;;;4.77;;
13897;SDS011;7019;50.766;4.474;2024-02-21T06:24:23;13.67;;;5.03;;
13897;SDS011;7019;50.766;4.474;2024-02-21T06:26:52;11.20;;;5.20;;
13897;SDS011;7019;50.766;4.474;2024-02-21T06:29:19;10.93;;;5.17;;
13897;SDS011;7019;50.766;4.474;2024-02-21T06:31:46;10.53;;;5.33;;
13897;SDS011;7019;50.766;4.474;2024-02-21T06:34:13;11.40;;;5.73;;
13897;SDS011;7019;50.766;4.474;2024-02-21T06:36:40;9.90;;;5.20;;
13897;SDS011;7019;50.766;4.474;2024-02-21T06:39:07;7.53;;;5.00;;
13897;SDS011;7019;50.766;4.474;2024-02-21T06:41:36;9.23;;;5.23;;
13897;SDS011;7019;50.766;4.474;2024-02-21T06:44:04;12.27;;;5.47;;
13897;SDS011;7019;50.766;4.474;2024-02-21T06:46:31;10.00;;;5.23;;
13897;SDS011;7019;50.766;4.474;2024-02-21T06:48:59;13.50;;;5.73;;
13897;SDS011;7019;50.766;4.474;2024-02-21T06:51:27;8.93;;;5.10;;
13897;SDS011;7019;50.766;4.474;2024-02-21T06:53:54;12.20;;;5.60;;
13897;SDS011;7019;50.766;4.474;2024-02-21T06:56:22;11.70;;;5.40;;
13897;SDS011;7019;50.766;4.474;2024-02-21T06:58:53;13.93;;;6.90;;
13897;SDS011;7019;50.766;4.474;2024-02-21T07:01:22;13.60;;;6.37;;
13897;SDS011;7019;50.766;4.474;2024-02-21T07:03:49;9.47;;;6.03;;
13897;SDS011;7019;50.766;4.474;2024-02-21T07:06:16;12.63;;;5.73;;
13897;SDS011;7019;50.766;4.474;2024-02-21T07:08:44;12.07;;;5.57;;
13897;SDS011;7019;50.766;4.474;2024-02-21T07:11:11;8.97;;;5.43;;
13897;SDS011;7019;50.766;4.474;2024-02-21T07:13:38;9.20;;;5.90;;
13897;SDS011;7019;50.766;4.474;2024-02-21T07:16:05;10.83;;;6.20;;
13897;SDS011;7019;50.766;4.474;2024-02-21T07:18:34;10.13;;;6.60;;
13897;SDS011;7019;50.766;4.474;2024-02-21T07:21:01;12.30;;;6.07;;
13897;SDS011;7019;50.766;4.474;2024-02-21T07:23:28;9.33;;;6.57;;
13897;SDS011;7019;50.766;4.474;2024-02-21T07:25:55;12.97;;;7.90;;
13897;SDS011;7019;50.766;4.474;2024-02-21T07:28:22;10.33;;;6.70;;
13897;SDS011;7019;50.766;4.474;2024-02-21T07:30:49;10.43;;;6.23;;
13897;SDS011;7019;50.766;4.474;2024-02-21T07:33:16;10.30;;;6.87;;
13897;SDS011;7019;50.766;4.474;2024-02-21T07:35:44;14.03;;;8.17;;
13897;SDS011;7019;50.766;4.474;2024-02-21T07:38:11;13.17;;;7.20;;
13897;SDS011;7019;50.766;4.474;2024-02-21T07:40:39;13.20;;;7.10;;
13897;SDS011;7019;50.766;4.474;2024-02-21T07:43:06;13.30;;;7.03;;
13897;SDS011;7019;50.766;4.474;2024-02-21T07:45:33;13.77;;;7.63;;
13897;SDS011;7019;50.766;4.474;2024-02-21T07:48:00;12.53;;;6.40;;
13897;SDS011;7019;50.766;4.474;2024-02-21T07:50:27;15.10;;;7.73;;
13897;SDS011;7019;50.766;4.474;2024-02-21T07:52:56;13.30;;;6.80;;
13897;SDS011;7019;50.766;4.474;2024-02-21T07:55:23;14.80;;;7.23;;
13897;SDS011;7019;50.766;4.474;2024-02-21T07:57:50;13.40;;;7.33;;
13897;SDS011;7019;50.766;4.474;2024-02-21T08:00:18;13.67;;;6.70;;
13897;SDS011;7019;50.766;4.474;2024-02-21T08:02:47;10.50;;;6.00;;
13897;SDS011;7019;50.766;4.474;2024-02-21T08:05:15;12.77;;;6.97;;
13897;SDS011;7019;50.766;4.474;2024-02-21T08:07:42;10.00;;;6.30;;
13897;SDS011;7019;50.766;4.474;2024-02-21T08:10:10;12.13;;;6.10;;
13897;SDS011;7019;50.766;4.474;2024-02-21T08:12:38;12.60;;;5.67;;
13897;SDS011;7019;50.766;4.474;2024-02-21T08:15:06;13.40;;;5.80;;
13897;SDS011;7019;50.766;4.474;2024-02-21T08:17:35;14.50;;;6.60;;
13897;SDS011;7019;50.766;4.474;2024-02-21T08:20:03;13.97;;;6.10;;
13897;SDS011;7019;50.766;4.474;2024-02-21T08:22:30;10.40;;;6.70;;
13897;SDS011;7019;50.766;4.474;2024-02-21T08:24:58;10.13;;;6.40;;
13897;SDS011;7019;50.766;4.474;2024-02-21T08:27:27;11.93;;;6.07;;
13897;SDS011;7019;50.766;4.474;2024-02-21T08:29:54;10.53;;;5.93;;
13897;SDS011;7019;50.766;4.474;2024-02-21T08:32:21;12.63;;;5.77;;
13897;SDS011;7019;50.766;4.474;2024-02-21T08:34:48;10.47;;;5.20;;
13897;SDS011;7019;50.766;4.474;2024-02-21T08:37:15;8.10;;;5.40;;
13897;SDS011;7019;50.766;4.474;2024-02-21T08:39:42;15.07;;;5.87;;
13897;SDS011;7019;50.766;4.474;2024-02-21T08:42:09;9.63;;;5.10;;
13897;SDS011;7019;50.766;4.474;2024-02-21T08:44:37;9.57;;;5.80;;
13897;SDS011;7019;50.766;4.474;2024-02-21T08:47:07;11.33;;;5.17;;
13897;SDS011;7019;50.766;4.474;2024-02-21T08:49:35;10.83;;;5.27;;
13897;SDS011;7019;50.766;4.474;2024-02-21T08:52:02;12.73;;;4.93;;
13897;SDS011;7019;50.766;4.474;2024-02-21T08:54:30;9.30;;;4.87;;
13897;SDS011;7019;50.766;4.474;2024-02-21T08:56:57;10.53;;;5.53;;
13897;SDS011;7019;50.766;4.474;2024-02-21T08:59:24;11.90;;;5.53;;
13897;SDS011;7019;50.766;4.474;2024-02-21T09:01:54;10.10;;;6.27;;
13897;SDS011;7019;50.766;4.474;2024-02-21T09:04:21;14.07;;;5.93;;
13897;SDS011;7019;50.766;4.474;2024-02-21T09:06:48;10.90;;;5.70;;
13897;SDS011;7019;50.766;4.474;2024-02-21T09:09:15;10.77;;;5.30;;
13897;SDS011;7019;50.766;4.474;2024-02-21T09:11:42;7.17;;;4.23;;
13897;SDS011;7019;50.766;4.474;2024-02-21T09:14:09;13.60;;;5.17;;
13897;SDS011;7019;50.766;4.474;2024-02-21T09:16:37;10.60;;;5.43;;
13897;SDS011;7019;50.766;4.474;2024-02-21T09:19:05;9.80;;;4.30;;
13897;SDS011;7019;50.766;4.474;2024-02-21T09:21:35;11.03;;;4.57;;
13897;SDS011;7019;50.766;4.474;2024-02-21T09:24:03;8.27;;;4.20;;
13897;SDS011;7019;50.766;4.474;2024-02-21T09:26:31;10.47;;;4.43;;
13897;SDS011;7019;50.766;4.474;2024-02-21T09:28:58;12.00;;;4.70;;
13897;SDS011;7019;50.766;4.474;2024-02-21T09:31:25;11.13;;;4.20;;
13897;SDS011;7019;50.766;4.474;2024-02-21T09:33:52;7.63;;;4.37;;
13897;SDS011;7019;50.766;4.474;2024-02-21T09:36:21;5.57;;;3.63;;
13897;SDS011;7019;50.766;4.474;2024-02-21T09:38:48;7.63;;;3.50;;
13897;SDS011;7019;50.766;4.474;2024-02-21T09:41:15;8.63;;;3.80;;
13897;SDS011;7019;50.766;4.474;2024-02-21T09:43:43;9.63;;;3.60;;
13897;SDS011;7019;50.766;4.474;2024-02-21T09:46:13;8.20;;;4.50;;
13897;SDS011;7019;50.766;4.474;2024-02-21T09:48:51;8.43;;;3.30;;
13897;SDS011;7019;50.766;4.474;2024-02-21T09:51:32;7.57;;;3.87;;
13897;SDS011;7019;50.766;4.474;2024-02-21T09:54:00;4.87;;;3.30;;
13897;SDS011;7019;50.766;4.474;2024-02-21T09:56:29;8.93;;;3.30;;
13897;SDS011;7019;50.766;4.474;2024-02-21T09:58:56;10.50;;;3.47;;
13897;SDS011;7019;50.766;4.474;2024-02-21T10:01:24;9.50;;;3.27;;
13897;SDS011;7019;50.766;4.474;2024-02-21T10:03:51;6.23;;;3.33;;
13897;SDS011;7019;50.766;4.474;2024-02-21T10:06:18;10.60;;;3.33;;
13897;SDS011;7019;50.766;4.474;2024-02-21T10:08:52;12.03;;;3.40;;
13897;SDS011;7019;50.766;4.474;2024-02-21T10:11:22;7.17;;;2.70;;
13897;SDS011;7019;50.766;4.474;2024-02-21T10:13:50;6.67;;;3.13;;
13897;SDS011;7019;50.766;4.474;2024-02-21T10:16:17;4.83;;;2.60;;
13897;SDS011;7019;50.766;4.474;2024-02-21T10:18:44;8.20;;;3.50;;
13897;SDS011;7019;50.766;4.474;2024-02-21T10:21:11;8.80;;;3.00;;
13897;SDS011;7019;50.766;4.474;2024-02-21T10:23:42;6.17;;;2.93;;
13897;SDS011;7019;50.766;4.474;2024-02-21T10:26:11;5.87;;;2.67;;
13897;SDS011;7019;50.766;4.474;2024-02-21T10:28:38;6.80;;;2.80;;
13897;SDS011;7019;50.766;4.474;2024-02-21T10:31:07;6.63;;;2.90;;
13897;SDS011;7019;50.766;4.474;2024-02-21T10:33:36;6.23;;;2.93;;
13897;SDS011;7019;50.766;4.474;2024-02-21T10:36:07;9.43;;;3.13;;
13897;SDS011;7019;50.766;4.474;2024-02-21T10:38:35;5.53;;;2.97;;
13897;SDS011;7019;50.766;4.474;2024-02-21T10:41:04;6.30;;;2.93;;
13897;SDS011;7019;50.766;4.474;2024-02-21T10:43:38;7.10;;;2.97;;
13897;SDS011;7019;50.766;4.474;2024-02-21T10:46:06;8.80;;;2.90;;
13897;SDS011;7019;50.766;4.474;2024-02-21T10:48:38;10.23;;;3.73;;
13897;SDS011;7019;50.766;4.474;2024-02-21T10:51:12;8.87;;;3.03;;
13897;SDS011;7019;50.766;4.474;2024-02-21T10:53:44;4.63;;;1.97;;
13897;SDS011;7019;50.766;4.474;2024-02-21T10:56:16;5.47;;;2.70;;
13897;SDS011;7019;50.766;4.474;2024-02-21T10:58:50;7.73;;;2.97;;
13897;SDS011;7019;50.766;4.474;2024-02-21T11:01:18;7.40;;;2.63;;
13897;SDS011;7019;50.766;4.474;2024-02-21T11:03:46;6.77;;;2.10;;
13897;SDS011;7019;50.766;4.474;2024-02-21T11:06:16;9.60;;;2.87;;
13897;SDS011;7019;50.766;4.474;2024-02-21T11:08:44;8.60;;;2.87;;
13897;SDS011;7019;50.766;4.474;2024-02-21T11:11:12;5.00;;;2.10;;
13897;SDS011;7019;50.766;4.474;2024-02-21T11:13:42;6.70;;;2.33;;
13897;SDS011;7019;50.766;4.474;2024-02-21T11:16:21;6.27;;;2.33;;
13897;SDS011;7019;50.766;4.474;2024-02-21T11:18:49;7.17;;;2.30;;
13897;SDS011;7019;50.766;4.474;2024-02-21T11:21:16;6.20;;;2.30;;
13897;SDS011;7019;50.766;4.474;2024-02-21T11:23:43;6.87;;;2.77;;
13897;SDS011;7019;50.766;4.474;2024-02-21T11:26:20;7.80;;;2.10;;
13897;SDS011;7019;50.766;4.474;2024-02-21T11:28:55;7.23;;;2.47;;
13897;SDS011;7019;50.766;4.474;2024-02-21T11:31:26;3.67;;;1.77;;
13897;SDS011;7019;50.766;4.474;2024-02-21T11:33:53;7.87;;;2.13;;
13897;SDS011;7019;50.766;4.474;2024-02-21T11:36:24;5.67;;;2.07;;
13897;SDS011;7019;50.766;4.474;2024-02-21T11:38:52;6.23;;;2.00;;
13897;SDS011;7019;50.766;4.474;2024-02-21T11:41:20;8.43;;;2.33;;
13897;SDS011;7019;50.766;4.474;2024-02-21T11:43:48;5.00;;;2.13;;
13897;SDS011;7019;50.766;4.474;2024-02-21T11:46:16;5.87;;;2.27;;
13897;SDS011;7019;50.766;4.474;2024-02-21T11:48:44;5.30;;;2.13;;
13897;SDS011;7019;50.766;4.474;2024-02-21T11:51:20;3.90;;;2.20;;
13897;SDS011;7019;50.766;4.474;2024-02-21T11:53:50;4.23;;;2.27;;
13897;SDS011;7019;50.766;4.474;2024-02-21T11:56:17;5.57;;;2.10;;
13897;SDS011;7019;50.766;4.474;2024-02-21T11:58:45;5.87;;;2.37;;
13897;SDS011;7019;50.766;4.474;2024-02-21T12:01:13;4.30;;;2.20;;
13897;SDS011;7019;50.766;4.474;2024-02-21T12:03:40;4.83;;;2.00;;
13897;SDS011;7019;50.766;4.474;2024-02-21T12:06:15;7.17;;;2.20;;
13897;SDS011;7019;50.766;4.474;2024-02-21T12:08:46;4.37;;;2.40;;
13897;SDS011;7019;50.766;4.474;2024-02-21T12:11:20;8.30;;;2.40;;
13897;SDS011;7019;50.766;4.474;2024-02-21T12:13:57;10.20;;;2.27;;
13897;SDS011;7019;50.766;4.474;2024-02-21T12:16:27;9.03;;;2.63;;
13897;SDS011;7019;50.766;4.474;2024-02-21T12:18:54;6.80;;;2.90;;
13897;SDS011;7019;50.766;4.474;2024-02-21T12:21:29;6.83;;;2.53;;
13897;SDS011;7019;50.766;4.474;2024-02-21T12:23:58;6.57;;;2.70;;
13897;SDS011;7019;50.766;4.474;2024-02-21T12:26:25;8.00;;;2.50;;
13897;SDS011;7019;50.766;4.474;2024-02-21T12:28:53;4.77;;;2.70;;
13897;SDS011;7019;50.766;4.474;2024-02-21T12:31:20;7.90;;;2.33;;
13897;SDS011;7019;50.766;4.474;2024-02-21T12:33:47;10.20;;;2.17;;
13897;SDS011;7019;50.766;4.474;2024-02-21T12:36:15;6.07;;;2.27;;
13897;SDS011;7019;50.766;4.474;2024-02-21T12:38:43;5.00;;;2.47;;
13897;SDS011;7019;50.766;4.474;2024-02-21T12:41:11;6.40;;;2.70;;
13897;SDS011;7019;50.766;4.474;2024-02-21T12:43:38;6.83;;;2.97;;
13897;SDS011;7019;50.766;4.474;2024-02-21T12:46:05;4.47;;;2.30;;
13897;SDS011;7019;50.766;4.474;2024-02-21T12:48:33;4.77;;;2.20;;
13897;SDS011;7019;50.766;4.474;2024-02-21T12:51:00;6.10;;;2.87;;
13897;SDS011;7019;50.766;4.474;2024-02-21T12:53:28;6.87;;;2.67;;
13897;SDS011;7019;50.766;4.474;2024-02-21T12:55:56;6.63;;;3.13;;
13897;SDS011;7019;50.766;4.474;2024-02-21T12:58:23;5.43;;;2.93;;
13897;SDS011;7019;50.766;4.474;2024-02-21T13:00:50;6.40;;;2.90;;
13897;SDS011;7019;50.766;4.474;2024-02-21T13:03:18;8.27;;;2.67;;
13897;SDS011;7019;50.766;4.474;2024-02-21T13:05:46;7.33;;;2.60;;
13897;SDS011;7019;50.766;4.474;2024-02-21T13:08:14;8.03;;;3.70;;
13897;SDS011;7019;50.766;4.474;2024-02-21T13:10:41;8.00;;;3.10;;
13897;SDS011;7019;50.766;4.474;2024-02-21T13:13:09;5.77;;;2.70;;
13897;SDS011;7019;50.766;4.474;2024-02-21T13:15:37;4.73;;;2.60;;
13897;SDS011;7019;50.766;4.474;2024-02-21T13:18:08;5.33;;;2.53;;
13897;SDS011;7019;50.766;4.474;2024-02-21T13:20:35;4.97;;;2.17;;
13897;SDS011;7019;50.766;4.474;2024-02-21T13:23:02;6.60;;;3.17;;
13897;SDS011;7019;50.766;4.474;2024-02-21T13:25:29;5.17;;;2.57;;
13897;SDS011;7019;50.766;4.474;2024-02-21T13:27:56;3.93;;;2.23;;
13897;SDS011;7019;50.766;4.474;2024-02-21T13:30:25;6.30;;;2.80;;
13897;SDS011;7019;50.766;4.474;2024-02-21T13:32:52;4.33;;;2.40;;
13897;SDS011;7019;50.766;4.474;2024-02-21T13:35:20;5.30;;;2.80;;
13897;SDS011;7019;50.766;4.474;2024-02-21T13:37:47;6.27;;;3.00;;
13897;SDS011;7019;50.766;4.474;2024-02-21T13:40:15;5.43;;;2.67;;
13897;SDS011;7019;50.766;4.474;2024-02-21T13:42:42;8.93;;;2.97;;
13897;SDS011;7019;50.766;4.474;2024-02-21T13:45:09;5.60;;;2.70;;
13897;SDS011;7019;50.766;4.474;2024-02-21T13:47:38;7.23;;;2.53;;
13897;SDS011;7019;50.766;4.474;2024-02-21T13:50:05;4.40;;;2.70;;
13897;SDS011;7019;50.766;4.474;2024-02-21T13:52:35;6.33;;;2.60;;
13897;SDS011;7019;50.766;4.474;2024-02-21T13:55:02;5.50;;;2.80;;
13897;SDS011;7019;50.766;4.474;2024-02-21T13:57:33;5.37;;;2.57;;
13897;SDS011;7019;50.766;4.474;2024-02-21T14:00:00;7.53;;;3.07;;
13897;SDS011;7019;50.766;4.474;2024-02-21T14:02:28;6.30;;;3.03;;
13897;SDS011;7019;50.766;4.474;2024-02-21T14:04:57;4.30;;;2.90;;
13897;SDS011;7019;50.766;4.474;2024-02-21T14:07:24;8.40;;;3.37;;
13897;SDS011;7019;50.766;4.474;2024-02-21T14:09:51;5.73;;;3.37;;
13897;SDS011;7019;50.766;4.474;2024-02-21T14:12:18;6.97;;;2.60;;
13897;SDS011;7019;50.766;4.474;2024-02-21T14:14:47;4.83;;;3.30;;
13897;SDS011;7019;50.766;4.474;2024-02-21T14:17:15;7.53;;;3.23;;
13897;SDS011;7019;50.766;4.474;2024-02-21T14:19:42;5.50;;;2.97;;
13897;SDS011;7019;50.766;4.474;2024-02-21T14:22:10;11.63;;;3.40;;
13897;SDS011;7019;50.766;4.474;2024-02-21T14:24:37;5.60;;;2.70;;
13897;SDS011;7019;50.766;4.474;2024-02-21T14:27:05;8.03;;;3.60;;
13897;SDS011;7019;50.766;4.474;2024-02-21T14:29:34;9.03;;;3.87;;
13897;SDS011;7019;50.766;4.474;2024-02-21T14:32:01;6.37;;;3.50;;
13897;SDS011;7019;50.766;4.474;2024-02-21T14:34:28;8.10;;;3.30;;
13897;SDS011;7019;50.766;4.474;2024-02-21T14:36:55;5.83;;;3.20;;
13897;SDS011;7019;50.766;4.474;2024-02-21T14:39:23;5.97;;;3.67;;
13897;SDS011;7019;50.766;4.474;2024-02-21T14:41:50;7.60;;;3.60;;
13897;SDS011;7019;50.766;4.474;2024-02-21T14:44:17;7.30;;;3.80;;
13897;SDS011;7019;50.766;4.474;2024-02-21T14:46:45;7.83;;;3.50;;
13897;SDS011;7019;50.766;4.474;2024-02-21T14:49:12;4.83;;;3.23;;
13897;SDS011;7019;50.766;4.474;2024-02-21T14:51:39;4.90;;;2.87;;
13897;SDS011;7019;50.766;4.474;2024-02-21T14:54:06;7.03;;;4.20;;
13897;SDS011;7019;50.766;4.474;2024-02-21T14:56:34;6.30;;;3.63;;